KECG/ECG METAR and TAF weather

Enter ICAO airport designator
Station Type Date Time Source
KECG METAR 2022/11/30 22:54 UTC NOAA

KECG 302254Z 21004KT 10SM CLR 15/14 A2991 RMK AO2 SLP127 T01500139


Station Type Date Time Source
KECG Decoded METAR 2022/11/30 22:54 UTC NOAA

ELIZABETH CITY C/G REGN AIRPORT , NC, United States (KECG) 36-15N 076-10W 11M
Nov 30, 2022 - 05:54 PM EST / 2022.11.30 2254 UTC
Wind: from the SSW (210 degrees) at 5 MPH (4 KT):0
Visibility: 10 mile(s):0
Sky conditions: clear
Temperature: 59.0 F (15.0 C)
Dew Point: 57.0 F (13.9 C)
Relative Humidity: 93%
Pressure (altimeter): 29.91 in. Hg (1012 hPa)
ob: KECG 302254Z 21004KT 10SM CLR 15/14 A2991 RMK AO2 SLP127 T01500139
cycle: 23

Station Type Date Time Source
KECG TAF 2022/11/30 22:21 UTC NOAA

TAF KECG 302212Z 3022/0118 22010KT P6SM VCSH OVC025
TEMPO 0100/0102 SCT025
FM010200 28012G22KT P6SM BKN060
FM010300 31012KT P6SM SKC
FM011500 34011KT P6SM SKC

Example: see airport list